sensor_id;sensor_type;location;lat;lon;timestamp;P1;durP1;ratioP1;P2;durP2;ratioP2
19173;SDS011;9719;49.322;8.536;2023-04-03T00:00:29;2.20;;;2.10;;
19173;SDS011;9719;49.322;8.536;2023-04-03T00:05:31;4.07;;;2.97;;
19173;SDS011;9719;49.322;8.536;2023-04-03T00:10:36;2.70;;;2.50;;
19173;SDS011;9719;49.322;8.536;2023-04-03T00:15:38;2.37;;;2.20;;
19173;SDS011;9719;49.322;8.536;2023-04-03T00:20:40;2.67;;;2.30;;
19173;SDS011;9719;49.322;8.536;2023-04-03T00:25:44;2.20;;;2.10;;
19173;SDS011;9719;49.322;8.536;2023-04-03T00:30:46;2.33;;;2.13;;
19173;SDS011;9719;49.322;8.536;2023-04-03T00:35:49;2.23;;;2.10;;
19173;SDS011;9719;49.322;8.536;2023-04-03T00:40:52;2.73;;;2.37;;
19173;SDS011;9719;49.322;8.536;2023-04-03T00:45:55;2.70;;;2.50;;
19173;SDS011;9719;49.322;8.536;2023-04-03T00:50:57;2.70;;;2.50;;
19173;SDS011;9719;49.322;8.536;2023-04-03T00:56:01;3.17;;;2.03;;
19173;SDS011;9719;49.322;8.536;2023-04-03T01:01:08;2.13;;;2.03;;
19173;SDS011;9719;49.322;8.536;2023-04-03T01:06:14;2.20;;;2.10;;
19173;SDS011;9719;49.322;8.536;2023-04-03T01:11:20;3.50;;;2.10;;
19173;SDS011;9719;49.322;8.536;2023-04-03T01:16:22;2.87;;;2.37;;
19173;SDS011;9719;49.322;8.536;2023-04-03T01:21:37;3.30;;;2.60;;
19173;SDS011;9719;49.322;8.536;2023-04-03T01:26:52;2.30;;;2.20;;
19173;SDS011;9719;49.322;8.536;2023-04-03T01:31:56;2.90;;;2.40;;
19173;SDS011;9719;49.322;8.536;2023-04-03T01:37:00;2.73;;;2.50;;
19173;SDS011;9719;49.322;8.536;2023-04-03T01:42:02;5.07;;;3.10;;
19173;SDS011;9719;49.322;8.536;2023-04-03T01:47:06;2.50;;;2.17;;
19173;SDS011;9719;49.322;8.536;2023-04-03T01:52:08;2.30;;;2.10;;
19173;SDS011;9719;49.322;8.536;2023-04-03T01:57:10;2.47;;;2.30;;
19173;SDS011;9719;49.322;8.536;2023-04-03T02:02:15;2.03;;;1.93;;
19173;SDS011;9719;49.322;8.536;2023-04-03T02:07:17;2.43;;;2.23;;
19173;SDS011;9719;49.322;8.536;2023-04-03T02:12:19;2.30;;;2.17;;
19173;SDS011;9719;49.322;8.536;2023-04-03T02:17:22;2.00;;;1.90;;
19173;SDS011;9719;49.322;8.536;2023-04-03T02:22:24;2.87;;;2.67;;
19173;SDS011;9719;49.322;8.536;2023-04-03T02:27:26;2.97;;;2.40;;
19173;SDS011;9719;49.322;8.536;2023-04-03T02:32:30;2.17;;;2.07;;
19173;SDS011;9719;49.322;8.536;2023-04-03T02:37:32;2.27;;;2.17;;
19173;SDS011;9719;49.322;8.536;2023-04-03T02:42:34;2.73;;;2.53;;
19173;SDS011;9719;49.322;8.536;2023-04-03T02:47:38;2.93;;;2.47;;
19173;SDS011;9719;49.322;8.536;2023-04-03T02:52:40;2.50;;;2.30;;
19173;SDS011;9719;49.322;8.536;2023-04-03T02:57:42;2.63;;;2.40;;
19173;SDS011;9719;49.322;8.536;2023-04-03T03:02:45;2.20;;;1.93;;
19173;SDS011;9719;49.322;8.536;2023-04-03T03:07:47;2.27;;;2.17;;
19173;SDS011;9719;49.322;8.536;2023-04-03T03:12:49;2.03;;;1.87;;
19173;SDS011;9719;49.322;8.536;2023-04-03T03:17:53;3.70;;;2.20;;
19173;SDS011;9719;49.322;8.536;2023-04-03T03:22:54;2.43;;;2.00;;
19173;SDS011;9719;49.322;8.536;2023-04-03T03:27:56;2.57;;;2.30;;
19173;SDS011;9719;49.322;8.536;2023-04-03T03:32:59;2.00;;;1.90;;
19173;SDS011;9719;49.322;8.536;2023-04-03T03:38:01;2.00;;;1.90;;
19173;SDS011;9719;49.322;8.536;2023-04-03T03:43:03;3.73;;;2.10;;
19173;SDS011;9719;49.322;8.536;2023-04-03T03:48:07;2.47;;;2.37;;
19173;SDS011;9719;49.322;8.536;2023-04-03T03:53:09;4.23;;;3.87;;
19173;SDS011;9719;49.322;8.536;2023-04-03T03:58:11;3.33;;;2.27;;
19173;SDS011;9719;49.322;8.536;2023-04-03T04:03:14;3.43;;;2.93;;
19173;SDS011;9719;49.322;8.536;2023-04-03T04:08:16;4.87;;;2.50;;
19173;SDS011;9719;49.322;8.536;2023-04-03T04:13:18;3.43;;;2.50;;
19173;SDS011;9719;49.322;8.536;2023-04-03T04:18:21;2.57;;;2.03;;
19173;SDS011;9719;49.322;8.536;2023-04-03T04:23:24;3.60;;;2.13;;
19173;SDS011;9719;49.322;8.536;2023-04-03T04:28:25;2.30;;;2.20;;
19173;SDS011;9719;49.322;8.536;2023-04-03T04:33:29;4.10;;;3.70;;
19173;SDS011;9719;49.322;8.536;2023-04-03T04:38:31;2.60;;;2.37;;
19173;SDS011;9719;49.322;8.536;2023-04-03T04:43:33;3.00;;;2.80;;
19173;SDS011;9719;49.322;8.536;2023-04-03T04:48:36;2.50;;;2.40;;
19173;SDS011;9719;49.322;8.536;2023-04-03T04:53:38;3.70;;;2.90;;
19173;SDS011;9719;49.322;8.536;2023-04-03T04:58:40;2.60;;;2.40;;
19173;SDS011;9719;49.322;8.536;2023-04-03T05:03:43;3.23;;;3.03;;
19173;SDS011;9719;49.322;8.536;2023-04-03T05:08:46;2.77;;;2.63;;
19173;SDS011;9719;49.322;8.536;2023-04-03T05:13:48;2.73;;;2.53;;
19173;SDS011;9719;49.322;8.536;2023-04-03T05:18:51;2.67;;;2.57;;
19173;SDS011;9719;49.322;8.536;2023-04-03T05:23:53;3.33;;;3.07;;
19173;SDS011;9719;49.322;8.536;2023-04-03T05:28:55;3.23;;;2.70;;
19173;SDS011;9719;49.322;8.536;2023-04-03T05:33:58;2.40;;;2.20;;
19173;SDS011;9719;49.322;8.536;2023-04-03T05:39:00;2.37;;;2.27;;
19173;SDS011;9719;49.322;8.536;2023-04-03T05:44:02;3.80;;;2.83;;
19173;SDS011;9719;49.322;8.536;2023-04-03T05:49:05;3.53;;;2.40;;
19173;SDS011;9719;49.322;8.536;2023-04-03T05:54:09;2.57;;;2.30;;
19173;SDS011;9719;49.322;8.536;2023-04-03T05:59:14;2.47;;;2.37;;
19173;SDS011;9719;49.322;8.536;2023-04-03T06:04:18;3.70;;;2.93;;
19173;SDS011;9719;49.322;8.536;2023-04-03T06:09:21;2.47;;;2.20;;
19173;SDS011;9719;49.322;8.536;2023-04-03T06:14:25;2.77;;;2.53;;
19173;SDS011;9719;49.322;8.536;2023-04-03T06:19:29;3.50;;;3.20;;
19173;SDS011;9719;49.322;8.536;2023-04-03T06:24:31;2.93;;;2.73;;
19173;SDS011;9719;49.322;8.536;2023-04-03T06:29:33;2.57;;;2.37;;
19173;SDS011;9719;49.322;8.536;2023-04-03T06:34:36;6.40;;;3.33;;
19173;SDS011;9719;49.322;8.536;2023-04-03T06:39:38;3.53;;;2.70;;
19173;SDS011;9719;49.322;8.536;2023-04-03T06:44:40;2.90;;;2.70;;
19173;SDS011;9719;49.322;8.536;2023-04-03T06:49:43;2.40;;;2.20;;
19173;SDS011;9719;49.322;8.536;2023-04-03T06:54:45;3.17;;;2.47;;
19173;SDS011;9719;49.322;8.536;2023-04-03T06:59:48;3.57;;;2.87;;
19173;SDS011;9719;49.322;8.536;2023-04-03T07:04:51;2.90;;;2.60;;
19173;SDS011;9719;49.322;8.536;2023-04-03T07:09:53;2.27;;;2.17;;
19173;SDS011;9719;49.322;8.536;2023-04-03T07:14:55;2.60;;;2.40;;
19173;SDS011;9719;49.322;8.536;2023-04-03T07:19:58;2.27;;;2.17;;
19173;SDS011;9719;49.322;8.536;2023-04-03T07:25:00;2.80;;;2.13;;
19173;SDS011;9719;49.322;8.536;2023-04-03T07:30:02;5.80;;;2.23;;
19173;SDS011;9719;49.322;8.536;2023-04-03T07:35:08;2.72;;;2.17;;
19173;SDS011;9719;49.322;8.536;2023-04-03T07:40:10;2.55;;;2.35;;
19173;SDS011;9719;49.322;8.536;2023-04-03T07:45:12;2.17;;;1.97;;
19173;SDS011;9719;49.322;8.536;2023-04-03T07:50:16;4.73;;;2.43;;
19173;SDS011;9719;49.322;8.536;2023-04-03T07:55:18;2.58;;;2.38;;
19173;SDS011;9719;49.322;8.536;2023-04-03T08:00:20;3.22;;;2.33;;
19173;SDS011;9719;49.322;8.536;2023-04-03T08:05:24;3.90;;;1.70;;
19173;SDS011;9719;49.322;8.536;2023-04-03T08:10:26;2.30;;;2.10;;
19173;SDS011;9719;49.322;8.536;2023-04-03T08:15:29;2.30;;;1.65;;
19173;SDS011;9719;49.322;8.536;2023-04-03T08:20:33;1.77;;;1.67;;
19173;SDS011;9719;49.322;8.536;2023-04-03T08:25:37;5.72;;;2.45;;
19173;SDS011;9719;49.322;8.536;2023-04-03T08:30:39;2.53;;;1.60;;
19173;SDS011;9719;49.322;8.536;2023-04-03T08:35:43;1.67;;;1.58;;
19173;SDS011;9719;49.322;8.536;2023-04-03T08:40:45;2.03;;;1.70;;
19173;SDS011;9719;49.322;8.536;2023-04-03T08:45:48;1.67;;;1.40;;
19173;SDS011;9719;49.322;8.536;2023-04-03T08:50:54;1.70;;;1.30;;
19173;SDS011;9719;49.322;8.536;2023-04-03T08:55:59;1.85;;;1.45;;
19173;SDS011;9719;49.322;8.536;2023-04-03T09:01:07;1.63;;;1.50;;
19173;SDS011;9719;49.322;8.536;2023-04-03T09:06:22;1.83;;;1.73;;
19173;SDS011;9719;49.322;8.536;2023-04-03T09:11:33;2.10;;;1.17;;
19173;SDS011;9719;49.322;8.536;2023-04-03T09:16:47;1.98;;;1.77;;
19173;SDS011;9719;49.322;8.536;2023-04-03T09:21:56;1.20;;;1.10;;
19173;SDS011;9719;49.322;8.536;2023-04-03T09:26:58;2.25;;;1.30;;
19173;SDS011;9719;49.322;8.536;2023-04-03T09:32:11;1.17;;;1.08;;
19173;SDS011;9719;49.322;8.536;2023-04-03T09:42:45;1.02;;;0.80;;
19173;SDS011;9719;49.322;8.536;2023-04-03T09:47:48;1.83;;;0.88;;
19173;SDS011;9719;49.322;8.536;2023-04-03T09:53:07;1.33;;;0.80;;
19173;SDS011;9719;49.322;8.536;2023-04-03T09:58:27;1.60;;;0.80;;
19173;SDS011;9719;49.322;8.536;2023-04-03T10:03:31;2.05;;;0.95;;
19173;SDS011;9719;49.322;8.536;2023-04-03T10:08:36;1.30;;;0.80;;
19173;SDS011;9719;49.322;8.536;2023-04-03T10:13:50;0.73;;;0.73;;
19173;SDS011;9719;49.322;8.536;2023-04-03T10:19:05;0.77;;;0.75;;
19173;SDS011;9719;49.322;8.536;2023-04-03T10:24:20;2.15;;;0.90;;
19173;SDS011;9719;49.322;8.536;2023-04-03T10:29:33;1.85;;;0.65;;
19173;SDS011;9719;49.322;8.536;2023-04-03T10:34:42;1.58;;;1.15;;
19173;SDS011;9719;49.322;8.536;2023-04-03T10:39:49;1.42;;;0.60;;
19173;SDS011;9719;49.322;8.536;2023-04-03T10:50:24;1.52;;;0.77;;
19173;SDS011;9719;49.322;8.536;2023-04-03T10:55:34;0.80;;;0.80;;
19173;SDS011;9719;49.322;8.536;2023-04-03T11:00:40;2.40;;;1.00;;
19173;SDS011;9719;49.322;8.536;2023-04-03T11:05:46;0.75;;;0.75;;
19173;SDS011;9719;49.322;8.536;2023-04-03T11:10:51;2.63;;;1.05;;
19173;SDS011;9719;49.322;8.536;2023-04-03T11:15:54;1.70;;;1.50;;
19173;SDS011;9719;49.322;8.536;2023-04-03T11:21:00;2.60;;;1.85;;
19173;SDS011;9719;49.322;8.536;2023-04-03T11:26:09;0.70;;;0.60;;
19173;SDS011;9719;49.322;8.536;2023-04-03T11:31:15;1.30;;;0.90;;
19173;SDS011;9719;49.322;8.536;2023-04-03T11:36:30;3.17;;;0.73;;
19173;SDS011;9719;49.322;8.536;2023-04-03T11:41:36;0.80;;;0.70;;
19173;SDS011;9719;49.322;8.536;2023-04-03T11:46:51;2.70;;;1.85;;
19173;SDS011;9719;49.322;8.536;2023-04-03T11:51:55;1.85;;;0.82;;
19173;SDS011;9719;49.322;8.536;2023-04-03T11:56:58;0.82;;;0.80;;
19173;SDS011;9719;49.322;8.536;2023-04-03T12:02:00;3.83;;;1.00;;
19173;SDS011;9719;49.322;8.536;2023-04-03T12:07:13;1.80;;;1.10;;
19173;SDS011;9719;49.322;8.536;2023-04-03T12:12:24;1.02;;;0.90;;
19173;SDS011;9719;49.322;8.536;2023-04-03T12:17:32;0.90;;;0.70;;
19173;SDS011;9719;49.322;8.536;2023-04-03T12:22:34;0.68;;;0.60;;
19173;SDS011;9719;49.322;8.536;2023-04-03T12:27:40;1.15;;;1.05;;
19173;SDS011;9719;49.322;8.536;2023-04-03T12:32:49;2.25;;;2.05;;
19173;SDS011;9719;49.322;8.536;2023-04-03T12:43:39;1.08;;;0.98;;
19173;SDS011;9719;49.322;8.536;2023-04-03T12:48:50;1.35;;;1.10;;
19173;SDS011;9719;49.322;8.536;2023-04-03T12:53:56;1.92;;;1.05;;
19173;SDS011;9719;49.322;8.536;2023-04-03T12:59:14;2.00;;;1.38;;
19173;SDS011;9719;49.322;8.536;2023-04-03T13:04:17;0.80;;;0.80;;
19173;SDS011;9719;49.322;8.536;2023-04-03T13:09:20;0.90;;;0.90;;
19173;SDS011;9719;49.322;8.536;2023-04-03T13:14:26;1.10;;;1.00;;
19173;SDS011;9719;49.322;8.536;2023-04-03T13:19:30;1.33;;;0.93;;
19173;SDS011;9719;49.322;8.536;2023-04-03T13:24:33;1.10;;;0.95;;
19173;SDS011;9719;49.322;8.536;2023-04-03T13:29:39;1.60;;;1.17;;
19173;SDS011;9719;49.322;8.536;2023-04-03T13:34:42;1.13;;;0.90;;
19173;SDS011;9719;49.322;8.536;2023-04-03T13:39:45;2.22;;;0.98;;
19173;SDS011;9719;49.322;8.536;2023-04-03T13:45:11;1.27;;;1.17;;
19173;SDS011;9719;49.322;8.536;2023-04-03T13:50:20;1.20;;;0.90;;
19173;SDS011;9719;49.322;8.536;2023-04-03T13:55:25;2.67;;;0.90;;
19173;SDS011;9719;49.322;8.536;2023-04-03T14:00:33;2.25;;;0.98;;
19173;SDS011;9719;49.322;8.536;2023-04-03T14:05:39;1.25;;;1.00;;
19173;SDS011;9719;49.322;8.536;2023-04-03T14:10:41;0.88;;;0.75;;
19173;SDS011;9719;49.322;8.536;2023-04-03T14:15:45;1.35;;;1.10;;
19173;SDS011;9719;49.322;8.536;2023-04-03T14:20:48;1.77;;;1.02;;
19173;SDS011;9719;49.322;8.536;2023-04-03T14:25:50;1.73;;;0.98;;
19173;SDS011;9719;49.322;8.536;2023-04-03T14:30:54;3.42;;;0.80;;
19173;SDS011;9719;49.322;8.536;2023-04-03T14:35:56;2.28;;;1.00;;
19173;SDS011;9719;49.322;8.536;2023-04-03T14:40:58;1.83;;;0.90;;
19173;SDS011;9719;49.322;8.536;2023-04-03T14:46:01;1.45;;;1.10;;
19173;SDS011;9719;49.322;8.536;2023-04-03T14:51:03;1.23;;;1.00;;
19173;SDS011;9719;49.322;8.536;2023-04-03T14:56:09;1.85;;;0.80;;
19173;SDS011;9719;49.322;8.536;2023-04-03T15:01:14;3.05;;;1.20;;
19173;SDS011;9719;49.322;8.536;2023-04-03T15:06:16;2.00;;;0.95;;
19173;SDS011;9719;49.322;8.536;2023-04-03T15:11:18;1.02;;;0.93;;
19173;SDS011;9719;49.322;8.536;2023-04-03T15:16:21;0.90;;;0.80;;
19173;SDS011;9719;49.322;8.536;2023-04-03T15:21:23;1.88;;;1.77;;
19173;SDS011;9719;49.322;8.536;2023-04-03T15:26:25;0.90;;;0.80;;
19173;SDS011;9719;49.322;8.536;2023-04-03T15:31:28;1.08;;;0.93;;
19173;SDS011;9719;49.322;8.536;2023-04-03T15:36:31;1.48;;;1.08;;
19173;SDS011;9719;49.322;8.536;2023-04-03T15:41:33;0.98;;;0.95;;
19173;SDS011;9719;49.322;8.536;2023-04-03T15:46:37;1.33;;;1.23;;
19173;SDS011;9719;49.322;8.536;2023-04-03T15:51:39;2.40;;;1.27;;
19173;SDS011;9719;49.322;8.536;2023-04-03T15:56:41;2.47;;;1.13;;
19173;SDS011;9719;49.322;8.536;2023-04-03T16:01:45;1.23;;;1.13;;
19173;SDS011;9719;49.322;8.536;2023-04-03T16:06:48;2.88;;;1.45;;
19173;SDS011;9719;49.322;8.536;2023-04-03T16:11:50;1.25;;;1.15;;
19173;SDS011;9719;49.322;8.536;2023-04-03T16:16:53;1.30;;;1.20;;
19173;SDS011;9719;49.322;8.536;2023-04-03T16:21:56;1.90;;;1.80;;
19173;SDS011;9719;49.322;8.536;2023-04-03T16:26:58;1.33;;;1.23;;
19173;SDS011;9719;49.322;8.536;2023-04-03T16:32:02;1.20;;;1.10;;
19173;SDS011;9719;49.322;8.536;2023-04-03T16:37:05;1.98;;;1.52;;
19173;SDS011;9719;49.322;8.536;2023-04-03T16:42:08;1.85;;;1.25;;
19173;SDS011;9719;49.322;8.536;2023-04-03T16:47:11;2.78;;;2.15;;
19173;SDS011;9719;49.322;8.536;2023-04-03T16:52:14;1.67;;;1.55;;
19173;SDS011;9719;49.322;8.536;2023-04-03T16:57:16;1.50;;;1.40;;
19173;SDS011;9719;49.322;8.536;2023-04-03T17:02:19;5.28;;;1.90;;
19173;SDS011;9719;49.322;8.536;2023-04-03T17:07:24;2.13;;;1.83;;
19173;SDS011;9719;49.322;8.536;2023-04-03T17:12:26;2.42;;;1.85;;
19173;SDS011;9719;49.322;8.536;2023-04-03T17:17:30;1.90;;;1.50;;
19173;SDS011;9719;49.322;8.536;2023-04-03T17:22:32;1.70;;;1.60;;
19173;SDS011;9719;49.322;8.536;2023-04-03T17:27:34;2.03;;;1.90;;
19173;SDS011;9719;49.322;8.536;2023-04-03T17:32:38;2.47;;;1.45;;
19173;SDS011;9719;49.322;8.536;2023-04-03T17:37:39;1.80;;;1.30;;
19173;SDS011;9719;49.322;8.536;2023-04-03T17:42:41;1.70;;;1.60;;
19173;SDS011;9719;49.322;8.536;2023-04-03T17:47:45;2.33;;;1.67;;
19173;SDS011;9719;49.322;8.536;2023-04-03T17:52:49;1.58;;;1.48;;
19173;SDS011;9719;49.322;8.536;2023-04-03T17:57:51;1.77;;;1.65;;
19173;SDS011;9719;49.322;8.536;2023-04-03T18:02:54;2.47;;;2.28;;
19173;SDS011;9719;49.322;8.536;2023-04-03T18:07:56;1.85;;;1.75;;
19173;SDS011;9719;49.322;8.536;2023-04-03T18:13:00;3.00;;;1.77;;
19173;SDS011;9719;49.322;8.536;2023-04-03T18:18:03;2.37;;;1.80;;
19173;SDS011;9719;49.322;8.536;2023-04-03T18:23:05;2.43;;;2.23;;
19173;SDS011;9719;49.322;8.536;2023-04-03T18:40:03;2.50;;;1.90;;
19173;SDS011;9719;49.322;8.536;2023-04-03T18:45:06;2.03;;;1.93;;
19173;SDS011;9719;49.322;8.536;2023-04-03T18:50:11;3.30;;;2.17;;
19173;SDS011;9719;49.322;8.536;2023-04-03T18:55:14;2.10;;;2.00;;
19173;SDS011;9719;49.322;8.536;2023-04-03T19:00:18;2.80;;;2.60;;
19173;SDS011;9719;49.322;8.536;2023-04-03T19:05:19;2.63;;;2.30;;
19173;SDS011;9719;49.322;8.536;2023-04-03T19:10:24;2.73;;;2.33;;
19173;SDS011;9719;49.322;8.536;2023-04-03T19:15:26;2.63;;;2.40;;
19173;SDS011;9719;49.322;8.536;2023-04-03T19:20:28;2.77;;;2.20;;
19173;SDS011;9719;49.322;8.536;2023-04-03T19:25:31;2.10;;;2.00;;
19173;SDS011;9719;49.322;8.536;2023-04-03T19:30:32;3.23;;;2.20;;
19173;SDS011;9719;49.322;8.536;2023-04-03T19:35:34;2.30;;;2.00;;
19173;SDS011;9719;49.322;8.536;2023-04-03T19:40:41;2.43;;;2.23;;
19173;SDS011;9719;49.322;8.536;2023-04-03T19:45:43;3.67;;;3.37;;
19173;SDS011;9719;49.322;8.536;2023-04-03T19:50:46;2.13;;;2.03;;
19173;SDS011;9719;49.322;8.536;2023-04-03T19:55:48;2.93;;;2.00;;
19173;SDS011;9719;49.322;8.536;2023-04-03T20:00:50;2.43;;;1.80;;
19173;SDS011;9719;49.322;8.536;2023-04-03T20:05:52;2.57;;;1.63;;
19173;SDS011;9719;49.322;8.536;2023-04-03T20:10:55;2.17;;;2.07;;
19173;SDS011;9719;49.322;8.536;2023-04-03T20:16:00;2.40;;;2.30;;
19173;SDS011;9719;49.322;8.536;2023-04-03T20:21:03;1.80;;;1.70;;
19173;SDS011;9719;49.322;8.536;2023-04-03T20:26:07;2.03;;;1.83;;
19173;SDS011;9719;49.322;8.536;2023-04-03T20:31:09;1.70;;;1.60;;
19173;SDS011;9719;49.322;8.536;2023-04-03T20:36:13;3.83;;;2.00;;
19173;SDS011;9719;49.322;8.536;2023-04-03T20:41:16;1.90;;;1.80;;
19173;SDS011;9719;49.322;8.536;2023-04-03T20:46:19;5.43;;;3.50;;
19173;SDS011;9719;49.322;8.536;2023-04-03T20:51:23;2.10;;;1.97;;
19173;SDS011;9719;49.322;8.536;2023-04-03T20:56:29;1.90;;;1.80;;
19173;SDS011;9719;49.322;8.536;2023-04-03T21:01:32;1.97;;;1.80;;
19173;SDS011;9719;49.322;8.536;2023-04-03T21:23:17;1.93;;;1.80;;
19173;SDS011;9719;49.322;8.536;2023-04-03T21:28:19;1.93;;;1.70;;
19173;SDS011;9719;49.322;8.536;2023-04-03T21:33:23;1.93;;;1.80;;
19173;SDS011;9719;49.322;8.536;2023-04-03T21:38:25;2.30;;;1.53;;
19173;SDS011;9719;49.322;8.536;2023-04-03T21:43:27;2.30;;;2.10;;
19173;SDS011;9719;49.322;8.536;2023-04-03T21:48:30;2.70;;;1.83;;
19173;SDS011;9719;49.322;8.536;2023-04-03T21:53:32;1.87;;;1.77;;
19173;SDS011;9719;49.322;8.536;2023-04-03T21:58:34;2.20;;;1.90;;
19173;SDS011;9719;49.322;8.536;2023-04-03T22:03:37;1.87;;;1.73;;
19173;SDS011;9719;49.322;8.536;2023-04-03T22:08:40;2.20;;;2.00;;
19173;SDS011;9719;49.322;8.536;2023-04-03T22:13:42;1.90;;;1.80;;
19173;SDS011;9719;49.322;8.536;2023-04-03T22:18:46;2.77;;;1.80;;
19173;SDS011;9719;49.322;8.536;2023-04-03T22:23:47;4.27;;;2.00;;
19173;SDS011;9719;49.322;8.536;2023-04-03T22:28:49;2.03;;;1.93;;
19173;SDS011;9719;49.322;8.536;2023-04-03T22:33:52;2.27;;;2.17;;
19173;SDS011;9719;49.322;8.536;2023-04-03T22:38:55;2.20;;;2.10;;
19173;SDS011;9719;49.322;8.536;2023-04-03T22:43:57;1.80;;;1.70;;
19173;SDS011;9719;49.322;8.536;2023-04-03T22:49:00;4.30;;;2.17;;
19173;SDS011;9719;49.322;8.536;2023-04-03T22:54:02;2.60;;;2.50;;
19173;SDS011;9719;49.322;8.536;2023-04-03T22:59:04;2.30;;;2.03;;
19173;SDS011;9719;49.322;8.536;2023-04-03T23:04:07;3.17;;;2.13;;
19173;SDS011;9719;49.322;8.536;2023-04-03T23:09:09;1.87;;;1.77;;
19173;SDS011;9719;49.322;8.536;2023-04-03T23:14:10;3.50;;;2.77;;
19173;SDS011;9719;49.322;8.536;2023-04-03T23:19:14;2.63;;;2.53;;
19173;SDS011;9719;49.322;8.536;2023-04-03T23:24:15;2.67;;;2.47;;
19173;SDS011;9719;49.322;8.536;2023-04-03T23:29:19;2.57;;;2.10;;
19173;SDS011;9719;49.322;8.536;2023-04-03T23:34:22;2.10;;;2.00;;
19173;SDS011;9719;49.322;8.536;2023-04-03T23:39:23;3.27;;;2.93;;
19173;SDS011;9719;49.322;8.536;2023-04-03T23:44:25;2.00;;;1.70;;
19173;SDS011;9719;49.322;8.536;2023-04-03T23:49:28;2.10;;;1.90;;
19173;SDS011;9719;49.322;8.536;2023-04-03T23:54:31;2.07;;;1.97;;
19173;SDS011;9719;49.322;8.536;2023-04-03T23:59:32;3.93;;;2.17;;
